sensor_id;sensor_type;location;lat;lon;timestamp;P1;durP1;ratioP1;P2;durP2;ratioP2
36211;SDS011;22247;48.586;13.492;2023-02-08T00:02:05;10.80;;;3.97;;
36211;SDS011;22247;48.586;13.492;2023-02-08T00:04:31;10.77;;;4.45;;
36211;SDS011;22247;48.586;13.492;2023-02-08T00:06:57;12.65;;;4.55;;
36211;SDS011;22247;48.586;13.492;2023-02-08T00:09:23;11.63;;;4.65;;
36211;SDS011;22247;48.586;13.492;2023-02-08T00:11:49;12.30;;;4.93;;
36211;SDS011;22247;48.586;13.492;2023-02-08T00:14:15;20.83;;;6.53;;
36211;SDS011;22247;48.586;13.492;2023-02-08T00:16:41;17.27;;;7.10;;
36211;SDS011;22247;48.586;13.492;2023-02-08T00:19:10;17.05;;;5.88;;
36211;SDS011;22247;48.586;13.492;2023-02-08T00:21:35;10.48;;;5.03;;
36211;SDS011;22247;48.586;13.492;2023-02-08T00:24:01;18.90;;;7.20;;
36211;SDS011;22247;48.586;13.492;2023-02-08T00:26:27;12.82;;;4.78;;
36211;SDS011;22247;48.586;13.492;2023-02-08T00:28:53;15.32;;;5.97;;
36211;SDS011;22247;48.586;13.492;2023-02-08T00:31:19;12.80;;;4.60;;
36211;SDS011;22247;48.586;13.492;2023-02-08T00:33:45;11.00;;;4.32;;
36211;SDS011;22247;48.586;13.492;2023-02-08T00:36:11;16.15;;;5.65;;
36211;SDS011;22247;48.586;13.492;2023-02-08T00:38:40;17.88;;;4.90;;
36211;SDS011;22247;48.586;13.492;2023-02-08T00:41:06;11.30;;;4.00;;
36211;SDS011;22247;48.586;13.492;2023-02-08T00:43:32;14.15;;;5.40;;
36211;SDS011;22247;48.586;13.492;2023-02-08T00:45:58;16.00;;;4.40;;
36211;SDS011;22247;48.586;13.492;2023-02-08T00:48:29;13.32;;;4.38;;
36211;SDS011;22247;48.586;13.492;2023-02-08T00:50:56;9.68;;;3.72;;
36211;SDS011;22247;48.586;13.492;2023-02-08T00:53:29;16.00;;;4.65;;
36211;SDS011;22247;48.586;13.492;2023-02-08T00:55:55;10.75;;;4.38;;
36211;SDS011;22247;48.586;13.492;2023-02-08T00:58:25;9.15;;;3.55;;
36211;SDS011;22247;48.586;13.492;2023-02-08T01:00:51;13.38;;;3.58;;
36211;SDS011;22247;48.586;13.492;2023-02-08T01:03:18;16.02;;;4.28;;
36211;SDS011;22247;48.586;13.492;2023-02-08T01:05:49;12.70;;;3.70;;
36211;SDS011;22247;48.586;13.492;2023-02-08T01:08:15;9.48;;;3.03;;
36211;SDS011;22247;48.586;13.492;2023-02-08T01:10:41;11.02;;;3.47;;
36211;SDS011;22247;48.586;13.492;2023-02-08T01:13:07;9.38;;;3.17;;
36211;SDS011;22247;48.586;13.492;2023-02-08T01:15:33;11.63;;;4.30;;
36211;SDS011;22247;48.586;13.492;2023-02-08T01:17:59;11.48;;;3.63;;
36211;SDS011;22247;48.586;13.492;2023-02-08T01:20:26;11.57;;;3.58;;
36211;SDS011;22247;48.586;13.492;2023-02-08T01:22:51;10.05;;;3.53;;
36211;SDS011;22247;48.586;13.492;2023-02-08T01:25:20;7.90;;;3.15;;
36211;SDS011;22247;48.586;13.492;2023-02-08T01:27:46;15.40;;;4.03;;
36211;SDS011;22247;48.586;13.492;2023-02-08T01:30:14;10.18;;;3.70;;
36211;SDS011;22247;48.586;13.492;2023-02-08T01:32:44;13.02;;;3.13;;
36211;SDS011;22247;48.586;13.492;2023-02-08T01:35:10;11.25;;;3.25;;
36211;SDS011;22247;48.586;13.492;2023-02-08T01:37:38;10.45;;;3.75;;
36211;SDS011;22247;48.586;13.492;2023-02-08T01:40:04;10.18;;;2.83;;
36211;SDS011;22247;48.586;13.492;2023-02-08T01:42:32;7.93;;;2.90;;
36211;SDS011;22247;48.586;13.492;2023-02-08T01:45:18;11.13;;;3.30;;
36211;SDS011;22247;48.586;13.492;2023-02-08T01:47:49;9.40;;;4.00;;
36211;SDS011;22247;48.586;13.492;2023-02-08T01:50:20;10.93;;;3.90;;
36211;SDS011;22247;48.586;13.492;2023-02-08T01:52:52;11.48;;;4.88;;
36211;SDS011;22247;48.586;13.492;2023-02-08T01:55:19;10.50;;;4.45;;
36211;SDS011;22247;48.586;13.492;2023-02-08T01:57:56;9.02;;;3.47;;
36211;SDS011;22247;48.586;13.492;2023-02-08T02:00:27;11.93;;;3.60;;
36211;SDS011;22247;48.586;13.492;2023-02-08T02:02:55;14.75;;;4.78;;
36211;SDS011;22247;48.586;13.492;2023-02-08T02:05:24;8.93;;;4.47;;
36211;SDS011;22247;48.586;13.492;2023-02-08T02:07:53;16.33;;;5.53;;
36211;SDS011;22247;48.586;13.492;2023-02-08T02:10:26;11.57;;;4.03;;
36211;SDS011;22247;48.586;13.492;2023-02-08T02:12:54;14.50;;;5.45;;
36211;SDS011;22247;48.586;13.492;2023-02-08T02:17:54;10.75;;;4.57;;
36211;SDS011;22247;48.586;13.492;2023-02-08T02:26:31;17.98;;;5.28;;
36211;SDS011;22247;48.586;13.492;2023-02-08T02:48:27;12.15;;;3.55;;
36211;SDS011;22247;48.586;13.492;2023-02-08T02:51:06;8.60;;;2.92;;
36211;SDS011;22247;48.586;13.492;2023-02-08T02:56:13;12.40;;;4.50;;
36211;SDS011;22247;48.586;13.492;2023-02-08T02:58:40;10.98;;;3.67;;
36211;SDS011;22247;48.586;13.492;2023-02-08T03:01:08;15.60;;;4.18;;
36211;SDS011;22247;48.586;13.492;2023-02-08T03:03:34;10.18;;;3.33;;
36211;SDS011;22247;48.586;13.492;2023-02-08T03:06:09;12.57;;;4.07;;
36211;SDS011;22247;48.586;13.492;2023-02-08T03:11:39;11.50;;;3.63;;
36211;SDS011;22247;48.586;13.492;2023-02-08T03:14:28;10.65;;;3.63;;
36211;SDS011;22247;48.586;13.492;2023-02-08T03:20:20;12.10;;;4.13;;
36211;SDS011;22247;48.586;13.492;2023-02-08T03:30:51;11.82;;;4.22;;
36211;SDS011;22247;48.586;13.492;2023-02-08T03:33:27;13.85;;;5.00;;
36211;SDS011;22247;48.586;13.492;2023-02-08T03:38:46;10.13;;;4.10;;
36211;SDS011;22247;48.586;13.492;2023-02-08T03:41:29;11.50;;;3.95;;
36211;SDS011;22247;48.586;13.492;2023-02-08T03:44:06;11.57;;;3.67;;
36211;SDS011;22247;48.586;13.492;2023-02-08T03:46:38;11.27;;;4.05;;
36211;SDS011;22247;48.586;13.492;2023-02-08T03:49:14;11.43;;;3.70;;
36211;SDS011;22247;48.586;13.492;2023-02-08T03:51:44;7.22;;;2.97;;
36211;SDS011;22247;48.586;13.492;2023-02-08T03:54:20;14.05;;;4.28;;
36211;SDS011;22247;48.586;13.492;2023-02-08T03:57:02;11.13;;;4.03;;
36211;SDS011;22247;48.586;13.492;2023-02-08T03:59:55;8.73;;;3.53;;
36211;SDS011;22247;48.586;13.492;2023-02-08T04:02:27;8.85;;;3.20;;
36211;SDS011;22247;48.586;13.492;2023-02-08T04:04:55;16.20;;;4.32;;
36211;SDS011;22247;48.586;13.492;2023-02-08T04:07:22;11.55;;;3.25;;
36211;SDS011;22247;48.586;13.492;2023-02-08T04:09:48;11.77;;;4.75;;
36211;SDS011;22247;48.586;13.492;2023-02-08T04:12:14;10.82;;;3.88;;
36211;SDS011;22247;48.586;13.492;2023-02-08T04:14:43;12.57;;;4.65;;
36211;SDS011;22247;48.586;13.492;2023-02-08T04:17:09;11.60;;;4.30;;
36211;SDS011;22247;48.586;13.492;2023-02-08T04:19:35;15.90;;;4.63;;
36211;SDS011;22247;48.586;13.492;2023-02-08T04:22:01;12.65;;;4.43;;
36211;SDS011;22247;48.586;13.492;2023-02-08T04:24:27;11.70;;;4.05;;
36211;SDS011;22247;48.586;13.492;2023-02-08T04:26:53;9.20;;;4.43;;
36211;SDS011;22247;48.586;13.492;2023-02-08T04:29:19;14.55;;;4.45;;
36211;SDS011;22247;48.586;13.492;2023-02-08T04:31:44;12.63;;;4.72;;
36211;SDS011;22247;48.586;13.492;2023-02-08T04:34:13;13.55;;;4.65;;
36211;SDS011;22247;48.586;13.492;2023-02-08T04:36:39;13.10;;;5.63;;
36211;SDS011;22247;48.586;13.492;2023-02-08T04:39:05;12.25;;;3.92;;
36211;SDS011;22247;48.586;13.492;2023-02-08T04:41:33;14.98;;;4.90;;
36211;SDS011;22247;48.586;13.492;2023-02-08T04:44:01;17.67;;;5.80;;
36211;SDS011;22247;48.586;13.492;2023-02-08T04:46:29;11.23;;;4.80;;
36211;SDS011;22247;48.586;13.492;2023-02-08T04:48:55;13.68;;;5.03;;
36211;SDS011;22247;48.586;13.492;2023-02-08T04:51:23;12.63;;;3.88;;
36211;SDS011;22247;48.586;13.492;2023-02-08T04:53:49;12.85;;;3.83;;
36211;SDS011;22247;48.586;13.492;2023-02-08T04:56:15;17.58;;;5.20;;
36211;SDS011;22247;48.586;13.492;2023-02-08T04:58:41;10.90;;;5.30;;
36211;SDS011;22247;48.586;13.492;2023-02-08T05:01:09;12.57;;;4.03;;
36211;SDS011;22247;48.586;13.492;2023-02-08T05:03:35;16.55;;;4.78;;
36211;SDS011;22247;48.586;13.492;2023-02-08T05:06:01;14.75;;;4.75;;
36211;SDS011;22247;48.586;13.492;2023-02-08T05:08:27;12.88;;;4.95;;
36211;SDS011;22247;48.586;13.492;2023-02-08T05:10:53;15.27;;;5.13;;
36211;SDS011;22247;48.586;13.492;2023-02-08T05:13:19;14.45;;;4.40;;
36211;SDS011;22247;48.586;13.492;2023-02-08T05:15:47;15.50;;;6.25;;
36211;SDS011;22247;48.586;13.492;2023-02-08T05:18:18;15.95;;;5.53;;
36211;SDS011;22247;48.586;13.492;2023-02-08T05:20:44;11.77;;;4.32;;
36211;SDS011;22247;48.586;13.492;2023-02-08T05:23:20;11.82;;;4.97;;
36211;SDS011;22247;48.586;13.492;2023-02-08T05:25:47;16.80;;;5.63;;
36211;SDS011;22247;48.586;13.492;2023-02-08T05:28:16;14.40;;;4.75;;
36211;SDS011;22247;48.586;13.492;2023-02-08T05:30:46;19.73;;;6.53;;
36211;SDS011;22247;48.586;13.492;2023-02-08T05:33:11;16.02;;;5.65;;
36211;SDS011;22247;48.586;13.492;2023-02-08T05:35:38;14.23;;;5.00;;
36211;SDS011;22247;48.586;13.492;2023-02-08T05:38:04;13.85;;;7.03;;
36211;SDS011;22247;48.586;13.492;2023-02-08T05:40:30;17.48;;;6.15;;
36211;SDS011;22247;48.586;13.492;2023-02-08T05:42:58;11.77;;;4.97;;
36211;SDS011;22247;48.586;13.492;2023-02-08T05:45:26;14.80;;;5.80;;
36211;SDS011;22247;48.586;13.492;2023-02-08T05:47:54;20.30;;;6.43;;
36211;SDS011;22247;48.586;13.492;2023-02-08T05:50:20;17.95;;;5.68;;
36211;SDS011;22247;48.586;13.492;2023-02-08T05:52:48;19.83;;;6.82;;
36211;SDS011;22247;48.586;13.492;2023-02-08T05:55:14;17.83;;;6.50;;
36211;SDS011;22247;48.586;13.492;2023-02-08T05:57:41;16.13;;;6.32;;
36211;SDS011;22247;48.586;13.492;2023-02-08T06:00:07;18.33;;;6.88;;
36211;SDS011;22247;48.586;13.492;2023-02-08T06:02:35;18.10;;;8.60;;
36211;SDS011;22247;48.586;13.492;2023-02-08T06:05:01;16.02;;;6.47;;
36211;SDS011;22247;48.586;13.492;2023-02-08T06:07:30;21.30;;;6.25;;
36211;SDS011;22247;48.586;13.492;2023-02-08T06:09:57;14.90;;;5.07;;
36211;SDS011;22247;48.586;13.492;2023-02-08T06:12:23;17.48;;;7.20;;
36211;SDS011;22247;48.586;13.492;2023-02-08T06:14:49;16.48;;;6.88;;
36211;SDS011;22247;48.586;13.492;2023-02-08T06:17:18;20.60;;;7.18;;
36211;SDS011;22247;48.586;13.492;2023-02-08T06:19:44;18.88;;;7.68;;
36211;SDS011;22247;48.586;13.492;2023-02-08T06:22:10;15.52;;;6.03;;
36211;SDS011;22247;48.586;13.492;2023-02-08T06:24:36;19.67;;;7.18;;
36211;SDS011;22247;48.586;13.492;2023-02-08T06:27:02;15.55;;;5.22;;
36211;SDS011;22247;48.586;13.492;2023-02-08T06:29:28;18.48;;;7.40;;
36211;SDS011;22247;48.586;13.492;2023-02-08T06:31:56;16.60;;;6.90;;
36211;SDS011;22247;48.586;13.492;2023-02-08T06:34:22;13.48;;;5.57;;
36211;SDS011;22247;48.586;13.492;2023-02-08T06:36:48;13.30;;;5.03;;
36211;SDS011;22247;48.586;13.492;2023-02-08T06:39:14;18.77;;;5.90;;
36211;SDS011;22247;48.586;13.492;2023-02-08T06:41:40;19.33;;;6.97;;
36211;SDS011;22247;48.586;13.492;2023-02-08T06:44:06;16.98;;;5.70;;
36211;SDS011;22247;48.586;13.492;2023-02-08T06:46:32;17.13;;;6.78;;
36211;SDS011;22247;48.586;13.492;2023-02-08T06:48:58;22.63;;;7.25;;
36211;SDS011;22247;48.586;13.492;2023-02-08T06:51:27;19.85;;;7.60;;
36211;SDS011;22247;48.586;13.492;2023-02-08T06:53:52;20.45;;;8.73;;
36211;SDS011;22247;48.586;13.492;2023-02-08T06:56:18;26.75;;;10.90;;
36211;SDS011;22247;48.586;13.492;2023-02-08T06:58:44;30.92;;;10.15;;
36211;SDS011;22247;48.586;13.492;2023-02-08T07:01:13;22.48;;;8.52;;
36211;SDS011;22247;48.586;13.492;2023-02-08T07:03:42;27.65;;;10.80;;
36211;SDS011;22247;48.586;13.492;2023-02-08T07:06:11;27.65;;;11.70;;
36211;SDS011;22247;48.586;13.492;2023-02-08T07:08:42;29.95;;;10.60;;
36211;SDS011;22247;48.586;13.492;2023-02-08T07:11:08;21.95;;;9.23;;
36211;SDS011;22247;48.586;13.492;2023-02-08T07:13:35;23.67;;;10.10;;
36211;SDS011;22247;48.586;13.492;2023-02-08T07:16:02;17.50;;;8.82;;
36211;SDS011;22247;48.586;13.492;2023-02-08T07:18:28;28.77;;;10.50;;
36211;SDS011;22247;48.586;13.492;2023-02-08T07:20:54;23.42;;;10.10;;
36211;SDS011;22247;48.586;13.492;2023-02-08T07:23:20;19.23;;;7.60;;
36211;SDS011;22247;48.586;13.492;2023-02-08T07:28:42;21.58;;;8.15;;
36211;SDS011;22247;48.586;13.492;2023-02-08T07:31:09;21.50;;;7.78;;
36211;SDS011;22247;48.586;13.492;2023-02-08T07:33:38;22.63;;;8.63;;
36211;SDS011;22247;48.586;13.492;2023-02-08T07:36:05;21.52;;;7.15;;
36211;SDS011;22247;48.586;13.492;2023-02-08T07:38:31;19.15;;;7.80;;
36211;SDS011;22247;48.586;13.492;2023-02-08T07:41:04;20.02;;;8.68;;
36211;SDS011;22247;48.586;13.492;2023-02-08T07:43:37;22.27;;;8.38;;
36211;SDS011;22247;48.586;13.492;2023-02-08T07:46:14;22.27;;;8.20;;
36211;SDS011;22247;48.586;13.492;2023-02-08T07:48:43;21.02;;;8.43;;
36211;SDS011;22247;48.586;13.492;2023-02-08T07:51:13;15.45;;;6.95;;
36211;SDS011;22247;48.586;13.492;2023-02-08T07:53:39;21.85;;;7.25;;
36211;SDS011;22247;48.586;13.492;2023-02-08T07:56:05;15.05;;;8.10;;
36211;SDS011;22247;48.586;13.492;2023-02-08T07:58:31;20.73;;;8.05;;
36211;SDS011;22247;48.586;13.492;2023-02-08T08:01:00;19.45;;;9.27;;
36211;SDS011;22247;48.586;13.492;2023-02-08T08:03:26;18.38;;;7.38;;
36211;SDS011;22247;48.586;13.492;2023-02-08T08:05:52;23.25;;;7.72;;
36211;SDS011;22247;48.586;13.492;2023-02-08T08:08:19;14.95;;;4.65;;
36211;SDS011;22247;48.586;13.492;2023-02-08T08:10:44;22.13;;;8.55;;
36211;SDS011;22247;48.586;13.492;2023-02-08T08:13:11;22.92;;;7.75;;
36211;SDS011;22247;48.586;13.492;2023-02-08T08:15:41;16.52;;;7.07;;
36211;SDS011;22247;48.586;13.492;2023-02-08T08:18:10;18.35;;;7.45;;
36211;SDS011;22247;48.586;13.492;2023-02-08T08:20:36;16.33;;;6.45;;
36211;SDS011;22247;48.586;13.492;2023-02-08T08:23:02;16.02;;;6.70;;
36211;SDS011;22247;48.586;13.492;2023-02-08T08:25:28;18.35;;;7.72;;
36211;SDS011;22247;48.586;13.492;2023-02-08T08:27:54;15.00;;;6.93;;
36211;SDS011;22247;48.586;13.492;2023-02-08T08:30:20;17.65;;;6.80;;
36211;SDS011;22247;48.586;13.492;2023-02-08T08:32:46;18.35;;;7.70;;
36211;SDS011;22247;48.586;13.492;2023-02-08T08:35:12;15.95;;;6.40;;
36211;SDS011;22247;48.586;13.492;2023-02-08T08:37:38;12.40;;;5.38;;
36211;SDS011;22247;48.586;13.492;2023-02-08T08:40:07;20.30;;;7.05;;
36211;SDS011;22247;48.586;13.492;2023-02-08T08:42:36;22.90;;;7.32;;
36211;SDS011;22247;48.586;13.492;2023-02-08T08:45:05;15.27;;;6.45;;
36211;SDS011;22247;48.586;13.492;2023-02-08T08:47:31;19.58;;;7.53;;
36211;SDS011;22247;48.586;13.492;2023-02-08T08:49:57;12.60;;;5.22;;
36211;SDS011;22247;48.586;13.492;2023-02-08T08:52:26;17.42;;;5.90;;
36211;SDS011;22247;48.586;13.492;2023-02-08T08:54:51;18.13;;;6.10;;
36211;SDS011;22247;48.586;13.492;2023-02-08T08:57:17;17.52;;;5.72;;
36211;SDS011;22247;48.586;13.492;2023-02-08T08:59:43;15.57;;;5.70;;
36211;SDS011;22247;48.586;13.492;2023-02-08T09:02:13;15.90;;;6.07;;
36211;SDS011;22247;48.586;13.492;2023-02-08T09:04:41;13.57;;;5.68;;
36211;SDS011;22247;48.586;13.492;2023-02-08T09:07:07;13.82;;;5.63;;
36211;SDS011;22247;48.586;13.492;2023-02-08T09:09:36;15.95;;;5.03;;
36211;SDS011;22247;48.586;13.492;2023-02-08T09:12:02;12.88;;;5.82;;
36211;SDS011;22247;48.586;13.492;2023-02-08T09:14:28;12.48;;;5.43;;
36211;SDS011;22247;48.586;13.492;2023-02-08T09:16:57;11.80;;;4.15;;
36211;SDS011;22247;48.586;13.492;2023-02-08T09:19:23;14.80;;;5.75;;
36211;SDS011;22247;48.586;13.492;2023-02-08T09:21:52;13.90;;;4.45;;
36211;SDS011;22247;48.586;13.492;2023-02-08T09:24:17;13.75;;;5.53;;
36211;SDS011;22247;48.586;13.492;2023-02-08T09:26:46;14.63;;;5.60;;
36211;SDS011;22247;48.586;13.492;2023-02-08T09:29:16;12.38;;;4.45;;
36211;SDS011;22247;48.586;13.492;2023-02-08T09:31:47;10.68;;;6.10;;
36211;SDS011;22247;48.586;13.492;2023-02-08T09:34:12;8.52;;;4.00;;
36211;SDS011;22247;48.586;13.492;2023-02-08T09:36:39;8.43;;;3.55;;
36211;SDS011;22247;48.586;13.492;2023-02-08T09:39:09;12.98;;;4.95;;
36211;SDS011;22247;48.586;13.492;2023-02-08T09:44:37;15.32;;;5.55;;
36211;SDS011;22247;48.586;13.492;2023-02-08T09:52:25;15.40;;;5.85;;
36211;SDS011;22247;48.586;13.492;2023-02-08T09:55:03;14.68;;;4.22;;
36211;SDS011;22247;48.586;13.492;2023-02-08T09:57:51;15.43;;;4.53;;
36211;SDS011;22247;48.586;13.492;2023-02-08T10:00:20;14.70;;;3.65;;
36211;SDS011;22247;48.586;13.492;2023-02-08T10:02:56;7.43;;;3.53;;
36211;SDS011;22247;48.586;13.492;2023-02-08T10:05:23;13.23;;;4.53;;
36211;SDS011;22247;48.586;13.492;2023-02-08T10:07:53;12.65;;;4.28;;
36211;SDS011;22247;48.586;13.492;2023-02-08T10:10:23;13.95;;;3.67;;
36211;SDS011;22247;48.586;13.492;2023-02-08T10:16:37;14.63;;;5.40;;
36211;SDS011;22247;48.586;13.492;2023-02-08T10:27:20;7.93;;;3.03;;
36211;SDS011;22247;48.586;13.492;2023-02-08T10:29:54;12.23;;;4.70;;
36211;SDS011;22247;48.586;13.492;2023-02-08T10:35:37;11.80;;;3.65;;
36211;SDS011;22247;48.586;13.492;2023-02-08T10:40:43;11.35;;;4.22;;
36211;SDS011;22247;48.586;13.492;2023-02-08T10:51:27;11.40;;;4.47;;
36211;SDS011;22247;48.586;13.492;2023-02-08T10:53:54;9.52;;;3.40;;
36211;SDS011;22247;48.586;13.492;2023-02-08T10:56:38;11.98;;;4.07;;
36211;SDS011;22247;48.586;13.492;2023-02-08T10:59:22;9.73;;;3.97;;
36211;SDS011;22247;48.586;13.492;2023-02-08T11:01:52;12.57;;;3.20;;
36211;SDS011;22247;48.586;13.492;2023-02-08T11:04:19;10.52;;;4.95;;
36211;SDS011;22247;48.586;13.492;2023-02-08T11:06:50;8.38;;;3.58;;
36211;SDS011;22247;48.586;13.492;2023-02-08T11:09:22;9.18;;;3.63;;
36211;SDS011;22247;48.586;13.492;2023-02-08T11:11:54;9.82;;;4.15;;
36211;SDS011;22247;48.586;13.492;2023-02-08T11:14:24;15.32;;;3.97;;
36211;SDS011;22247;48.586;13.492;2023-02-08T11:16:56;9.10;;;3.00;;
36211;SDS011;22247;48.586;13.492;2023-02-08T11:19:37;6.93;;;2.47;;
36211;SDS011;22247;48.586;13.492;2023-02-08T11:22:17;8.52;;;3.17;;
36211;SDS011;22247;48.586;13.492;2023-02-08T11:24:44;9.90;;;3.17;;
36211;SDS011;22247;48.586;13.492;2023-02-08T11:27:28;8.07;;;2.53;;
36211;SDS011;22247;48.586;13.492;2023-02-08T11:32:40;6.72;;;3.13;;
36211;SDS011;22247;48.586;13.492;2023-02-08T11:37:48;9.73;;;3.15;;
36211;SDS011;22247;48.586;13.492;2023-02-08T11:42:48;10.20;;;3.17;;
36211;SDS011;22247;48.586;13.492;2023-02-08T11:45:20;8.30;;;3.60;;
36211;SDS011;22247;48.586;13.492;2023-02-08T11:47:50;8.30;;;2.63;;
36211;SDS011;22247;48.586;13.492;2023-02-08T11:50:26;7.85;;;2.30;;
36211;SDS011;22247;48.586;13.492;2023-02-08T11:53:21;7.55;;;2.72;;
36211;SDS011;22247;48.586;13.492;2023-02-08T11:55:48;8.75;;;2.97;;
36211;SDS011;22247;48.586;13.492;2023-02-08T11:58:29;7.57;;;2.53;;
36211;SDS011;22247;48.586;13.492;2023-02-08T12:00:57;7.63;;;2.90;;
36211;SDS011;22247;48.586;13.492;2023-02-08T12:03:28;6.70;;;2.33;;
36211;SDS011;22247;48.586;13.492;2023-02-08T12:08:51;6.80;;;2.10;;
36211;SDS011;22247;48.586;13.492;2023-02-08T12:21:49;5.05;;;1.83;;
36211;SDS011;22247;48.586;13.492;2023-02-08T12:24:43;5.70;;;2.53;;
36211;SDS011;22247;48.586;13.492;2023-02-08T12:32:52;7.32;;;2.88;;
36211;SDS011;22247;48.586;13.492;2023-02-08T12:35:23;6.75;;;2.20;;
36211;SDS011;22247;48.586;13.492;2023-02-08T12:38:21;6.15;;;2.03;;
36211;SDS011;22247;48.586;13.492;2023-02-08T12:50:30;5.55;;;1.73;;
36211;SDS011;22247;48.586;13.492;2023-02-08T12:55:41;7.65;;;2.45;;
36211;SDS011;22247;48.586;13.492;2023-02-08T12:58:42;6.28;;;1.75;;
36211;SDS011;22247;48.586;13.492;2023-02-08T13:01:12;3.92;;;1.60;;
36211;SDS011;22247;48.586;13.492;2023-02-08T13:06:20;5.90;;;1.80;;
36211;SDS011;22247;48.586;13.492;2023-02-08T13:09:03;4.00;;;1.65;;
36211;SDS011;22247;48.586;13.492;2023-02-08T13:14:05;5.47;;;1.60;;
36211;SDS011;22247;48.586;13.492;2023-02-08T13:16:40;4.50;;;1.67;;
36211;SDS011;22247;48.586;13.492;2023-02-08T13:21:47;2.90;;;1.15;;
36211;SDS011;22247;48.586;13.492;2023-02-08T13:24:26;5.63;;;1.88;;
36211;SDS011;22247;48.586;13.492;2023-02-08T13:26:57;3.83;;;1.47;;
36211;SDS011;22247;48.586;13.492;2023-02-08T13:29:26;2.13;;;0.77;;
36211;SDS011;22247;48.586;13.492;2023-02-08T13:31:58;3.65;;;1.45;;
36211;SDS011;22247;48.586;13.492;2023-02-08T13:34:46;4.05;;;0.90;;
36211;SDS011;22247;48.586;13.492;2023-02-08T13:37:22;2.53;;;0.93;;
36211;SDS011;22247;48.586;13.492;2023-02-08T13:39:56;1.58;;;0.57;;
36211;SDS011;22247;48.586;13.492;2023-02-08T13:42:49;3.60;;;1.17;;
36211;SDS011;22247;48.586;13.492;2023-02-08T13:45:22;2.85;;;0.70;;
36211;SDS011;22247;48.586;13.492;2023-02-08T13:47:57;1.58;;;0.60;;
36211;SDS011;22247;48.586;13.492;2023-02-08T13:53:04;1.98;;;0.60;;
36211;SDS011;22247;48.586;13.492;2023-02-08T14:08:23;3.38;;;1.20;;
36211;SDS011;22247;48.586;13.492;2023-02-08T14:11:03;2.70;;;0.88;;
36211;SDS011;22247;48.586;13.492;2023-02-08T14:13:55;2.50;;;1.05;;
36211;SDS011;22247;48.586;13.492;2023-02-08T14:16:31;4.10;;;1.17;;
36211;SDS011;22247;48.586;13.492;2023-02-08T14:19:02;2.53;;;0.80;;
36211;SDS011;22247;48.586;13.492;2023-02-08T14:24:01;2.28;;;0.50;;
36211;SDS011;22247;48.586;13.492;2023-02-08T14:26:30;2.30;;;0.68;;
36211;SDS011;22247;48.586;13.492;2023-02-08T14:29:00;3.15;;;0.65;;
36211;SDS011;22247;48.586;13.492;2023-02-08T14:31:34;5.38;;;0.98;;
36211;SDS011;22247;48.586;13.492;2023-02-08T14:34:20;1.33;;;0.60;;
36211;SDS011;22247;48.586;13.492;2023-02-08T14:36:52;1.40;;;0.60;;
36211;SDS011;22247;48.586;13.492;2023-02-08T14:39:42;2.30;;;0.85;;
36211;SDS011;22247;48.586;13.492;2023-02-08T14:42:09;1.92;;;1.00;;
36211;SDS011;22247;48.586;13.492;2023-02-08T14:47:12;1.80;;;0.70;;
36211;SDS011;22247;48.586;13.492;2023-02-08T14:50:18;2.97;;;0.90;;
36211;SDS011;22247;48.586;13.492;2023-02-08T14:52:50;2.03;;;0.55;;
36211;SDS011;22247;48.586;13.492;2023-02-08T14:55:44;1.92;;;0.68;;
36211;SDS011;22247;48.586;13.492;2023-02-08T14:58:30;1.83;;;0.80;;
36211;SDS011;22247;48.586;13.492;2023-02-08T15:01:01;3.03;;;0.50;;
36211;SDS011;22247;48.586;13.492;2023-02-08T15:03:32;3.22;;;0.73;;
36211;SDS011;22247;48.586;13.492;2023-02-08T15:08:27;3.30;;;0.70;;
36211;SDS011;22247;48.586;13.492;2023-02-08T15:10:56;3.45;;;0.60;;
36211;SDS011;22247;48.586;13.492;2023-02-08T15:13:22;3.40;;;0.90;;
36211;SDS011;22247;48.586;13.492;2023-02-08T15:15:50;2.38;;;1.25;;
36211;SDS011;22247;48.586;13.492;2023-02-08T15:18:25;3.53;;;0.73;;
36211;SDS011;22247;48.586;13.492;2023-02-08T15:23:24;1.83;;;0.50;;
36211;SDS011;22247;48.586;13.492;2023-02-08T15:26:00;2.10;;;0.75;;
36211;SDS011;22247;48.586;13.492;2023-02-08T15:28:44;2.95;;;0.50;;
36211;SDS011;22247;48.586;13.492;2023-02-08T15:31:16;2.72;;;0.65;;
36211;SDS011;22247;48.586;13.492;2023-02-08T15:33:50;1.73;;;0.70;;
36211;SDS011;22247;48.586;13.492;2023-02-08T15:38:45;9.07;;;2.22;;
36211;SDS011;22247;48.586;13.492;2023-02-08T15:41:15;5.55;;;1.20;;
36211;SDS011;22247;48.586;13.492;2023-02-08T15:43:49;13.73;;;4.35;;
36211;SDS011;22247;48.586;13.492;2023-02-08T15:46:22;8.88;;;2.78;;
36211;SDS011;22247;48.586;13.492;2023-02-08T15:48:53;20.33;;;4.45;;
36211;SDS011;22247;48.586;13.492;2023-02-08T15:51:21;16.95;;;5.55;;
36211;SDS011;22247;48.586;13.492;2023-02-08T15:53:52;8.55;;;2.33;;
36211;SDS011;22247;48.586;13.492;2023-02-08T15:56:23;8.75;;;2.80;;
36211;SDS011;22247;48.586;13.492;2023-02-08T15:58:58;7.40;;;1.85;;
36211;SDS011;22247;48.586;13.492;2023-02-08T16:01:25;6.07;;;1.30;;
36211;SDS011;22247;48.586;13.492;2023-02-08T16:03:56;8.57;;;2.40;;
36211;SDS011;22247;48.586;13.492;2023-02-08T16:06:27;8.48;;;2.28;;
36211;SDS011;22247;48.586;13.492;2023-02-08T16:11:25;2.05;;;0.82;;
36211;SDS011;22247;48.586;13.492;2023-02-08T16:13:54;2.70;;;0.60;;
36211;SDS011;22247;48.586;13.492;2023-02-08T16:16:25;4.95;;;0.88;;
36211;SDS011;22247;48.586;13.492;2023-02-08T16:21:52;2.80;;;0.65;;
36211;SDS011;22247;48.586;13.492;2023-02-08T16:24:23;3.45;;;1.00;;
36211;SDS011;22247;48.586;13.492;2023-02-08T16:32:16;2.60;;;0.77;;
36211;SDS011;22247;48.586;13.492;2023-02-08T16:34:45;1.67;;;0.90;;
36211;SDS011;22247;48.586;13.492;2023-02-08T16:37:25;3.33;;;1.30;;
36211;SDS011;22247;48.586;13.492;2023-02-08T16:42:35;3.53;;;0.93;;
36211;SDS011;22247;48.586;13.492;2023-02-08T16:47:52;2.40;;;0.70;;
36211;SDS011;22247;48.586;13.492;2023-02-08T16:50:20;3.03;;;0.60;;
36211;SDS011;22247;48.586;13.492;2023-02-08T16:52:52;8.07;;;2.92;;
36211;SDS011;22247;48.586;13.492;2023-02-08T16:55:26;13.90;;;1.35;;
36211;SDS011;22247;48.586;13.492;2023-02-08T16:57:57;5.50;;;0.90;;
36211;SDS011;22247;48.586;13.492;2023-02-08T17:00:27;2.60;;;0.70;;
36211;SDS011;22247;48.586;13.492;2023-02-08T17:02:54;4.50;;;1.20;;
36211;SDS011;22247;48.586;13.492;2023-02-08T17:05:21;2.40;;;1.08;;
36211;SDS011;22247;48.586;13.492;2023-02-08T17:07:51;3.00;;;1.70;;
36211;SDS011;22247;48.586;13.492;2023-02-08T17:10:29;3.85;;;1.40;;
36211;SDS011;22247;48.586;13.492;2023-02-08T17:12:58;1.92;;;0.90;;
36211;SDS011;22247;48.586;13.492;2023-02-08T17:15:25;2.58;;;1.02;;
36211;SDS011;22247;48.586;13.492;2023-02-08T17:17:53;5.47;;;1.67;;
36211;SDS011;22247;48.586;13.492;2023-02-08T17:20:26;19.80;;;4.40;;
36211;SDS011;22247;48.586;13.492;2023-02-08T17:22:57;12.32;;;3.58;;
36211;SDS011;22247;48.586;13.492;2023-02-08T17:25:26;4.72;;;1.38;;
36211;SDS011;22247;48.586;13.492;2023-02-08T17:27:56;5.00;;;2.47;;
36211;SDS011;22247;48.586;13.492;2023-02-08T17:30:32;2.88;;;1.23;;
36211;SDS011;22247;48.586;13.492;2023-02-08T17:33:00;3.97;;;1.00;;
36211;SDS011;22247;48.586;13.492;2023-02-08T17:35:30;2.38;;;0.90;;
36211;SDS011;22247;48.586;13.492;2023-02-08T17:38:03;4.40;;;1.05;;
36211;SDS011;22247;48.586;13.492;2023-02-08T17:40:33;3.17;;;0.80;;